Terminal Aerodrome Forecast
Issued by NWS Norman, OK

Current Version | Previous Version | Text Only | Print | Product List | Glossary On
Versions: 1 2 3 4 5 6 7 8 9 10 11 12 13 14 15 16 17 18 19 20 21 22 23
000
FTUS44 KOUN 250520
TAFSPS
TAF
KSPS 250520Z 2506/2606 13011KT P6SM BKN100
     FM251500 16012G18KT P6SM BKN050 PROB30 2520/2602 4SM -SHRA
     FM260200 13008KT 5SM -SHRA OVC035=

USA.gov is the U.S. government's official web portal to all federal, state and local government web resources and services.